KNXP

Twentynine Palms Self Airport

Twentynine Palms, California, USA
METAR KNXP 191356Z AUTO 00000KT 10SM CLR 07/02 A3003 RMK AO2 SLP149 T00720017
Observed Flight Rules
Jan-19 @ 13:56 UTC (an hour ago) Visual Flight Rules
Wind Visibility Clouds
Calm 10 miles
  • Clear skies
Temperatures Readings
Current 7°C / 45°F
Dewpoint 2°C / 36°F
Humidity 71%
Altimeter 30.03" Hg
Pressure 1014.9 hPa
Elevation 626
METAR KNXP 191356Z AUTO 00000KT 10SM CLR 07/02 A3003 RMK AO2 SLP149 T00720017
Observed Flight Rules
Jan-19 @ 13:56 UTC
(an hour ago)
VFR
Wind Visibility
Calm 10 miles
Clouds
  • Clear skies
Temperature Dewpoint
7°C / 45°F 2°C / 36°F
Humidity Altimeter Pressure
71% 30.03" Hg 1014.9 hPa